sensor_id;sensor_type;location;lat;lon;timestamp;temperature;humidity
10316;DHT22;5203;48.976;8.306;2023-02-22T00:01:19;8.10;72.50
10316;DHT22;5203;48.976;8.306;2023-02-22T00:04:04;7.60;71.90
10316;DHT22;5203;48.976;8.306;2023-02-22T00:06:30;7.50;76.40
10316;DHT22;5203;48.976;8.306;2023-02-22T00:08:57;7.60;76.40
10316;DHT22;5203;48.976;8.306;2023-02-22T00:11:23;7.70;75.40
10316;DHT22;5203;48.976;8.306;2023-02-22T00:13:49;7.80;75.30
10316;DHT22;5203;48.976;8.306;2023-02-22T00:16:17;7.80;74.80
10316;DHT22;5203;48.976;8.306;2023-02-22T00:18:43;7.80;73.40
10316;DHT22;5203;48.976;8.306;2023-02-22T00:21:11;7.80;73.80
10316;DHT22;5203;48.976;8.306;2023-02-22T00:23:40;7.80;74.50
10316;DHT22;5203;48.976;8.306;2023-02-22T00:26:08;7.90;74.70
10316;DHT22;5203;48.976;8.306;2023-02-22T00:28:35;7.80;73.20
10316;DHT22;5203;48.976;8.306;2023-02-22T00:31:02;7.80;73.10
10316;DHT22;5203;48.976;8.306;2023-02-22T00:33:30;7.70;74.60
10316;DHT22;5203;48.976;8.306;2023-02-22T00:35:56;7.70;75.00
10316;DHT22;5203;48.976;8.306;2023-02-22T00:38:24;7.70;75.20
10316;DHT22;5203;48.976;8.306;2023-02-22T00:40:50;7.70;75.60
10316;DHT22;5203;48.976;8.306;2023-02-22T00:43:16;7.80;74.90
10316;DHT22;5203;48.976;8.306;2023-02-22T00:45:42;7.80;75.10
10316;DHT22;5203;48.976;8.306;2023-02-22T00:48:08;7.80;75.20
10316;DHT22;5203;48.976;8.306;2023-02-22T00:50:35;7.70;75.20
10316;DHT22;5203;48.976;8.306;2023-02-22T00:53:02;7.80;75.60
10316;DHT22;5203;48.976;8.306;2023-02-22T00:55:33;7.90;76.00
10316;DHT22;5203;48.976;8.306;2023-02-22T00:57:59;7.90;75.50
10316;DHT22;5203;48.976;8.306;2023-02-22T01:00:30;7.90;75.50
10316;DHT22;5203;48.976;8.306;2023-02-22T01:02:56;7.90;74.20
10316;DHT22;5203;48.976;8.306;2023-02-22T01:05:25;7.80;74.70
10316;DHT22;5203;48.976;8.306;2023-02-22T01:07:52;7.70;75.20
10316;DHT22;5203;48.976;8.306;2023-02-22T01:10:19;7.70;74.90
10316;DHT22;5203;48.976;8.306;2023-02-22T01:12:46;7.70;75.30
10316;DHT22;5203;48.976;8.306;2023-02-22T01:15:13;7.60;73.60
10316;DHT22;5203;48.976;8.306;2023-02-22T01:17:40;7.60;75.10
10316;DHT22;5203;48.976;8.306;2023-02-22T01:20:09;7.60;74.40
10316;DHT22;5203;48.976;8.306;2023-02-22T01:22:38;7.70;74.70
10316;DHT22;5203;48.976;8.306;2023-02-22T01:25:04;7.60;74.90
10316;DHT22;5203;48.976;8.306;2023-02-22T01:27:32;7.70;75.00
10316;DHT22;5203;48.976;8.306;2023-02-22T01:29:59;7.70;74.60
10316;DHT22;5203;48.976;8.306;2023-02-22T01:32:24;7.60;73.00
10316;DHT22;5203;48.976;8.306;2023-02-22T01:34:52;7.60;74.60
10316;DHT22;5203;48.976;8.306;2023-02-22T01:37:18;7.50;74.50
10316;DHT22;5203;48.976;8.306;2023-02-22T01:39:44;7.50;74.90
10316;DHT22;5203;48.976;8.306;2023-02-22T01:42:09;7.50;74.30
10316;DHT22;5203;48.976;8.306;2023-02-22T01:44:37;7.30;74.10
10316;DHT22;5203;48.976;8.306;2023-02-22T01:47:05;7.10;73.80
10316;DHT22;5203;48.976;8.306;2023-02-22T01:49:36;7.10;75.90
10316;DHT22;5203;48.976;8.306;2023-02-22T01:52:05;7.10;76.10
10316;DHT22;5203;48.976;8.306;2023-02-22T01:54:54;7.20;75.60
10316;DHT22;5203;48.976;8.306;2023-02-22T01:57:26;7.30;75.90
10316;DHT22;5203;48.976;8.306;2023-02-22T01:59:59;7.30;75.50
10316;DHT22;5203;48.976;8.306;2023-02-22T02:02:26;7.30;75.50
10316;DHT22;5203;48.976;8.306;2023-02-22T02:04:53;7.30;75.10
10316;DHT22;5203;48.976;8.306;2023-02-22T02:07:20;7.20;75.50
10316;DHT22;5203;48.976;8.306;2023-02-22T02:09:49;7.30;74.30
10316;DHT22;5203;48.976;8.306;2023-02-22T02:12:18;7.30;74.40
10316;DHT22;5203;48.976;8.306;2023-02-22T02:14:45;7.10;74.50
10316;DHT22;5203;48.976;8.306;2023-02-22T02:17:13;7.10;76.00
10316;DHT22;5203;48.976;8.306;2023-02-22T02:20:00;6.90;74.70
10316;DHT22;5203;48.976;8.306;2023-02-22T02:28:25;6.90;77.20
10316;DHT22;5203;48.976;8.306;2023-02-22T02:39:36;7.10;76.30
10316;DHT22;5203;48.976;8.306;2023-02-22T02:42:07;7.00;76.10
10316;DHT22;5203;48.976;8.306;2023-02-22T02:44:45;7.00;76.60
10316;DHT22;5203;48.976;8.306;2023-02-22T02:47:29;7.00;76.00
10316;DHT22;5203;48.976;8.306;2023-02-22T02:52:23;7.00;76.30
10316;DHT22;5203;48.976;8.306;2023-02-22T02:54:51;6.90;76.00
10316;DHT22;5203;48.976;8.306;2023-02-22T02:57:17;7.00;76.30
10316;DHT22;5203;48.976;8.306;2023-02-22T02:59:43;7.00;75.90
10316;DHT22;5203;48.976;8.306;2023-02-22T03:08:23;6.80;75.50
10316;DHT22;5203;48.976;8.306;2023-02-22T03:10:57;6.70;75.70
10316;DHT22;5203;48.976;8.306;2023-02-22T03:17:06;6.60;76.50
10316;DHT22;5203;48.976;8.306;2023-02-22T03:24:38;6.80;77.20
10316;DHT22;5203;48.976;8.306;2023-02-22T03:27:17;6.80;77.10
10316;DHT22;5203;48.976;8.306;2023-02-22T03:29:48;6.80;76.60
10316;DHT22;5203;48.976;8.306;2023-02-22T03:32:20;6.80;76.50
10316;DHT22;5203;48.976;8.306;2023-02-22T03:35:11;6.70;75.70
10316;DHT22;5203;48.976;8.306;2023-02-22T03:37:43;6.80;77.80
10316;DHT22;5203;48.976;8.306;2023-02-22T03:40:15;6.70;77.20
10316;DHT22;5203;48.976;8.306;2023-02-22T03:42:45;6.60;77.70
10316;DHT22;5203;48.976;8.306;2023-02-22T03:45:15;6.70;77.60
10316;DHT22;5203;48.976;8.306;2023-02-22T03:47:45;6.70;77.20
10316;DHT22;5203;48.976;8.306;2023-02-22T03:50:17;6.60;77.00
10316;DHT22;5203;48.976;8.306;2023-02-22T03:52:44;6.60;76.50
10316;DHT22;5203;48.976;8.306;2023-02-22T03:55:12;6.50;76.80
10316;DHT22;5203;48.976;8.306;2023-02-22T03:57:46;6.50;77.10
10316;DHT22;5203;48.976;8.306;2023-02-22T04:00:17;6.50;77.50
10316;DHT22;5203;48.976;8.306;2023-02-22T04:02:43;6.50;77.60
10316;DHT22;5203;48.976;8.306;2023-02-22T04:05:09;6.50;77.20
10316;DHT22;5203;48.976;8.306;2023-02-22T04:07:35;6.50;77.50
10316;DHT22;5203;48.976;8.306;2023-02-22T04:10:01;6.40;77.20
10316;DHT22;5203;48.976;8.306;2023-02-22T04:12:28;6.50;77.30
10316;DHT22;5203;48.976;8.306;2023-02-22T04:14:53;6.50;77.90
10316;DHT22;5203;48.976;8.306;2023-02-22T04:17:19;6.50;78.00
10316;DHT22;5203;48.976;8.306;2023-02-22T04:19:44;6.60;78.70
10316;DHT22;5203;48.976;8.306;2023-02-22T04:22:11;6.60;77.90
10316;DHT22;5203;48.976;8.306;2023-02-22T04:24:36;6.60;77.30
10316;DHT22;5203;48.976;8.306;2023-02-22T04:27:02;6.60;77.60
10316;DHT22;5203;48.976;8.306;2023-02-22T04:29:28;6.60;77.60
10316;DHT22;5203;48.976;8.306;2023-02-22T04:31:54;6.70;77.20
10316;DHT22;5203;48.976;8.306;2023-02-22T04:34:20;6.60;77.30
10316;DHT22;5203;48.976;8.306;2023-02-22T04:36:46;6.60;76.40
10316;DHT22;5203;48.976;8.306;2023-02-22T04:39:11;6.60;77.40
10316;DHT22;5203;48.976;8.306;2023-02-22T04:41:37;6.50;77.00
10316;DHT22;5203;48.976;8.306;2023-02-22T04:44:03;6.50;77.00
10316;DHT22;5203;48.976;8.306;2023-02-22T04:46:28;6.40;77.00
10316;DHT22;5203;48.976;8.306;2023-02-22T04:48:56;6.40;77.60
10316;DHT22;5203;48.976;8.306;2023-02-22T04:51:23;6.30;78.60
10316;DHT22;5203;48.976;8.306;2023-02-22T04:53:48;6.30;78.90
10316;DHT22;5203;48.976;8.306;2023-02-22T04:56:16;6.40;78.30
10316;DHT22;5203;48.976;8.306;2023-02-22T04:58:42;6.40;77.70
10316;DHT22;5203;48.976;8.306;2023-02-22T05:01:08;6.40;77.60
10316;DHT22;5203;48.976;8.306;2023-02-22T05:03:36;6.20;76.80
10316;DHT22;5203;48.976;8.306;2023-02-22T05:06:02;6.20;77.50
10316;DHT22;5203;48.976;8.306;2023-02-22T05:08:28;6.10;77.90
10316;DHT22;5203;48.976;8.306;2023-02-22T05:10:54;6.10;78.60
10316;DHT22;5203;48.976;8.306;2023-02-22T05:13:20;6.00;77.70
10316;DHT22;5203;48.976;8.306;2023-02-22T05:15:45;6.00;78.40
10316;DHT22;5203;48.976;8.306;2023-02-22T05:18:12;6.00;78.50
10316;DHT22;5203;48.976;8.306;2023-02-22T05:20:38;6.20;78.70
10316;DHT22;5203;48.976;8.306;2023-02-22T05:23:04;6.20;79.40
10316;DHT22;5203;48.976;8.306;2023-02-22T05:25:30;6.30;78.90
10316;DHT22;5203;48.976;8.306;2023-02-22T05:28:00;6.30;78.20
10316;DHT22;5203;48.976;8.306;2023-02-22T05:30:30;6.20;78.30
10316;DHT22;5203;48.976;8.306;2023-02-22T05:32:56;6.10;78.60
10316;DHT22;5203;48.976;8.306;2023-02-22T05:35:23;6.20;78.80
10316;DHT22;5203;48.976;8.306;2023-02-22T05:37:49;6.10;78.80
10316;DHT22;5203;48.976;8.306;2023-02-22T05:40:18;6.10;78.00
10316;DHT22;5203;48.976;8.306;2023-02-22T05:42:44;6.00;77.90
10316;DHT22;5203;48.976;8.306;2023-02-22T05:45:12;6.00;78.70
10316;DHT22;5203;48.976;8.306;2023-02-22T05:47:38;5.90;79.20
10316;DHT22;5203;48.976;8.306;2023-02-22T05:50:04;5.90;78.50
10316;DHT22;5203;48.976;8.306;2023-02-22T05:52:30;6.00;79.70
10316;DHT22;5203;48.976;8.306;2023-02-22T05:54:56;6.10;80.20
10316;DHT22;5203;48.976;8.306;2023-02-22T05:57:22;6.00;79.30
10316;DHT22;5203;48.976;8.306;2023-02-22T05:59:48;6.00;80.70
10316;DHT22;5203;48.976;8.306;2023-02-22T06:02:14;6.00;80.40
10316;DHT22;5203;48.976;8.306;2023-02-22T06:04:42;6.00;79.20
10316;DHT22;5203;48.976;8.306;2023-02-22T06:07:08;6.00;79.50
10316;DHT22;5203;48.976;8.306;2023-02-22T06:09:34;6.00;79.10
10316;DHT22;5203;48.976;8.306;2023-02-22T06:11:59;5.90;79.50
10316;DHT22;5203;48.976;8.306;2023-02-22T06:14:25;5.90;80.80
10316;DHT22;5203;48.976;8.306;2023-02-22T06:16:52;6.00;81.30
10316;DHT22;5203;48.976;8.306;2023-02-22T06:19:18;6.00;79.30
10316;DHT22;5203;48.976;8.306;2023-02-22T06:21:50;5.90;79.50
10316;DHT22;5203;48.976;8.306;2023-02-22T06:24:16;5.90;80.10
10316;DHT22;5203;48.976;8.306;2023-02-22T06:26:42;5.90;80.90
10316;DHT22;5203;48.976;8.306;2023-02-22T06:29:07;5.90;81.70
10316;DHT22;5203;48.976;8.306;2023-02-22T06:31:33;5.90;81.00
10316;DHT22;5203;48.976;8.306;2023-02-22T06:33:59;5.80;80.20
10316;DHT22;5203;48.976;8.306;2023-02-22T06:36:25;5.80;79.60
10316;DHT22;5203;48.976;8.306;2023-02-22T06:38:51;5.80;80.50
10316;DHT22;5203;48.976;8.306;2023-02-22T06:41:16;5.80;80.40
10316;DHT22;5203;48.976;8.306;2023-02-22T06:43:42;5.90;80.60
10316;DHT22;5203;48.976;8.306;2023-02-22T06:46:11;5.90;80.00
10316;DHT22;5203;48.976;8.306;2023-02-22T06:48:37;5.90;79.70
10316;DHT22;5203;48.976;8.306;2023-02-22T06:51:05;5.90;80.20
10316;DHT22;5203;48.976;8.306;2023-02-22T06:53:33;5.80;79.60
10316;DHT22;5203;48.976;8.306;2023-02-22T06:55:58;5.90;79.90
10316;DHT22;5203;48.976;8.306;2023-02-22T06:58:24;5.90;79.70
10316;DHT22;5203;48.976;8.306;2023-02-22T07:00:51;5.80;79.40
10316;DHT22;5203;48.976;8.306;2023-02-22T07:03:17;5.80;80.50
10316;DHT22;5203;48.976;8.306;2023-02-22T07:05:43;5.90;80.80
10316;DHT22;5203;48.976;8.306;2023-02-22T07:08:10;6.00;80.80
10316;DHT22;5203;48.976;8.306;2023-02-22T07:10:38;6.00;81.20
10316;DHT22;5203;48.976;8.306;2023-02-22T07:13:05;6.10;81.90
10316;DHT22;5203;48.976;8.306;2023-02-22T07:15:32;6.10;82.70
10316;DHT22;5203;48.976;8.306;2023-02-22T07:17:59;6.10;82.20
10316;DHT22;5203;48.976;8.306;2023-02-22T07:20:27;6.00;83.50
10316;DHT22;5203;48.976;8.306;2023-02-22T07:22:53;5.80;85.70
10316;DHT22;5203;48.976;8.306;2023-02-22T07:25:19;5.60;89.40
10316;DHT22;5203;48.976;8.306;2023-02-22T07:27:45;5.40;93.30
10316;DHT22;5203;48.976;8.306;2023-02-22T07:30:24;5.30;96.50
10316;DHT22;5203;48.976;8.306;2023-02-22T07:32:51;5.20;97.80
10316;DHT22;5203;48.976;8.306;2023-02-22T07:35:26;5.10;99.00
10316;DHT22;5203;48.976;8.306;2023-02-22T07:37:52;5.00;99.90
10316;DHT22;5203;48.976;8.306;2023-02-22T07:40:18;5.20;99.90
10316;DHT22;5203;48.976;8.306;2023-02-22T07:43:15;5.30;99.50
10316;DHT22;5203;48.976;8.306;2023-02-22T07:45:41;5.30;99.40
10316;DHT22;5203;48.976;8.306;2023-02-22T07:48:06;5.40;98.10
10316;DHT22;5203;48.976;8.306;2023-02-22T07:50:33;5.50;98.30
10316;DHT22;5203;48.976;8.306;2023-02-22T07:53:01;5.70;98.00
10316;DHT22;5203;48.976;8.306;2023-02-22T07:55:29;5.90;96.30
10316;DHT22;5203;48.976;8.306;2023-02-22T07:57:57;6.10;94.90
10316;DHT22;5203;48.976;8.306;2023-02-22T08:02:50;6.50;92.30
10316;DHT22;5203;48.976;8.306;2023-02-22T08:05:17;6.60;91.30
10316;DHT22;5203;48.976;8.306;2023-02-22T08:07:43;6.70;90.10
10316;DHT22;5203;48.976;8.306;2023-02-22T08:10:09;6.80;88.70
10316;DHT22;5203;48.976;8.306;2023-02-22T08:12:36;6.80;88.80
10316;DHT22;5203;48.976;8.306;2023-02-22T08:15:04;6.80;88.80
10316;DHT22;5203;48.976;8.306;2023-02-22T08:17:30;6.80;89.10
10316;DHT22;5203;48.976;8.306;2023-02-22T08:19:55;6.80;89.60
10316;DHT22;5203;48.976;8.306;2023-02-22T08:22:21;6.70;90.40
10316;DHT22;5203;48.976;8.306;2023-02-22T08:24:48;6.70;91.20
10316;DHT22;5203;48.976;8.306;2023-02-22T08:27:14;6.80;90.70
10316;DHT22;5203;48.976;8.306;2023-02-22T08:29:39;6.80;90.90
10316;DHT22;5203;48.976;8.306;2023-02-22T08:32:05;6.80;90.80
10316;DHT22;5203;48.976;8.306;2023-02-22T08:34:31;6.90;91.30
10316;DHT22;5203;48.976;8.306;2023-02-22T08:36:57;6.90;92.00
10316;DHT22;5203;48.976;8.306;2023-02-22T08:39:23;6.90;92.30
10316;DHT22;5203;48.976;8.306;2023-02-22T08:41:49;7.00;92.10
10316;DHT22;5203;48.976;8.306;2023-02-22T08:44:14;7.10;91.50
10316;DHT22;5203;48.976;8.306;2023-02-22T08:46:40;7.20;90.90
10316;DHT22;5203;48.976;8.306;2023-02-22T08:49:05;7.40;90.10
10316;DHT22;5203;48.976;8.306;2023-02-22T08:51:34;7.40;88.30
10316;DHT22;5203;48.976;8.306;2023-02-22T08:54:00;7.50;89.30
10316;DHT22;5203;48.976;8.306;2023-02-22T08:56:28;7.50;90.20
10316;DHT22;5203;48.976;8.306;2023-02-22T08:58:55;7.60;89.30
10316;DHT22;5203;48.976;8.306;2023-02-22T09:01:22;7.50;89.90
10316;DHT22;5203;48.976;8.306;2023-02-22T09:03:49;7.70;88.60
10316;DHT22;5203;48.976;8.306;2023-02-22T09:06:16;7.80;89.10
10316;DHT22;5203;48.976;8.306;2023-02-22T09:08:41;7.80;87.50
10316;DHT22;5203;48.976;8.306;2023-02-22T09:11:07;7.90;87.70
10316;DHT22;5203;48.976;8.306;2023-02-22T09:13:32;7.80;87.40
10316;DHT22;5203;48.976;8.306;2023-02-22T09:15:58;7.60;90.60
10316;DHT22;5203;48.976;8.306;2023-02-22T09:18:26;7.70;90.20
10316;DHT22;5203;48.976;8.306;2023-02-22T09:20:52;7.70;92.30
10316;DHT22;5203;48.976;8.306;2023-02-22T09:23:19;7.90;91.10
10316;DHT22;5203;48.976;8.306;2023-02-22T09:25:46;7.90;92.30
10316;DHT22;5203;48.976;8.306;2023-02-22T09:28:12;8.10;90.30
10316;DHT22;5203;48.976;8.306;2023-02-22T09:30:38;8.40;87.70
10316;DHT22;5203;48.976;8.306;2023-02-22T09:33:15;8.50;87.10
10316;DHT22;5203;48.976;8.306;2023-02-22T09:35:43;8.60;85.30
10316;DHT22;5203;48.976;8.306;2023-02-22T09:38:17;8.70;85.50
10316;DHT22;5203;48.976;8.306;2023-02-22T09:40:48;8.60;87.30
10316;DHT22;5203;48.976;8.306;2023-02-22T09:51:44;9.20;79.30
10316;DHT22;5203;48.976;8.306;2023-02-22T09:54:38;9.40;74.90
10316;DHT22;5203;48.976;8.306;2023-02-22T09:57:08;9.70;74.00
10316;DHT22;5203;48.976;8.306;2023-02-22T09:59:40;9.90;73.90
10316;DHT22;5203;48.976;8.306;2023-02-22T10:02:29;10.00;69.60
10316;DHT22;5203;48.976;8.306;2023-02-22T10:05:07;10.00;70.30
10316;DHT22;5203;48.976;8.306;2023-02-22T10:07:42;10.10;70.60
10316;DHT22;5203;48.976;8.306;2023-02-22T10:10:16;10.30;69.70
10316;DHT22;5203;48.976;8.306;2023-02-22T10:26:15;10.70;69.50
10316;DHT22;5203;48.976;8.306;2023-02-22T10:31:35;10.60;70.50
10316;DHT22;5203;48.976;8.306;2023-02-22T10:34:25;10.80;69.30
10316;DHT22;5203;48.976;8.306;2023-02-22T10:36:58;11.20;67.70
10316;DHT22;5203;48.976;8.306;2023-02-22T10:39:33;11.30;68.10
10316;DHT22;5203;48.976;8.306;2023-02-22T10:42:06;11.50;67.80
10316;DHT22;5203;48.976;8.306;2023-02-22T10:44:37;11.70;65.10
10316;DHT22;5203;48.976;8.306;2023-02-22T10:47:07;11.70;64.90
10316;DHT22;5203;48.976;8.306;2023-02-22T10:49:36;11.50;65.00
10316;DHT22;5203;48.976;8.306;2023-02-22T10:52:13;11.70;63.10
10316;DHT22;5203;48.976;8.306;2023-02-22T10:54:41;11.80;62.60
10316;DHT22;5203;48.976;8.306;2023-02-22T10:57:10;11.60;63.50
10316;DHT22;5203;48.976;8.306;2023-02-22T10:59:39;11.70;64.80
10316;DHT22;5203;48.976;8.306;2023-02-22T11:04:49;12.00;62.40
10316;DHT22;5203;48.976;8.306;2023-02-22T11:07:28;11.80;61.50
10316;DHT22;5203;48.976;8.306;2023-02-22T11:09:58;12.10;59.90
10316;DHT22;5203;48.976;8.306;2023-02-22T11:14:53;12.10;59.70
10316;DHT22;5203;48.976;8.306;2023-02-22T11:17:38;12.50;57.60
10316;DHT22;5203;48.976;8.306;2023-02-22T11:20:05;12.60;58.10
10316;DHT22;5203;48.976;8.306;2023-02-22T11:22:39;12.70;56.40
10316;DHT22;5203;48.976;8.306;2023-02-22T11:25:06;12.90;56.70
10316;DHT22;5203;48.976;8.306;2023-02-22T11:27:40;13.10;56.20
10316;DHT22;5203;48.976;8.306;2023-02-22T11:35:59;13.80;54.10
10316;DHT22;5203;48.976;8.306;2023-02-22T11:38:31;13.30;56.20
10316;DHT22;5203;48.976;8.306;2023-02-22T11:41:20;13.30;56.50
10316;DHT22;5203;48.976;8.306;2023-02-22T11:43:50;13.70;55.30
10316;DHT22;5203;48.976;8.306;2023-02-22T11:48:59;13.60;54.60
10316;DHT22;5203;48.976;8.306;2023-02-22T11:54:56;13.50;57.50
10316;DHT22;5203;48.976;8.306;2023-02-22T12:04:35;15.00;50.90
10316;DHT22;5203;48.976;8.306;2023-02-22T12:09:18;15.20;50.80
10316;DHT22;5203;48.976;8.306;2023-02-22T12:17:25;15.60;49.80
10316;DHT22;5203;48.976;8.306;2023-02-22T12:20:01;15.20;51.90
10316;DHT22;5203;48.976;8.306;2023-02-22T12:22:34;15.50;50.20
10316;DHT22;5203;48.976;8.306;2023-02-22T12:25:22;16.10;49.60
10316;DHT22;5203;48.976;8.306;2023-02-22T12:27:53;15.60;50.60
10316;DHT22;5203;48.976;8.306;2023-02-22T12:30:29;15.30;52.30
10316;DHT22;5203;48.976;8.306;2023-02-22T12:33:03;15.80;50.20
10316;DHT22;5203;48.976;8.306;2023-02-22T12:35:33;16.20;48.80
10316;DHT22;5203;48.976;8.306;2023-02-22T12:38:08;15.60;49.10
10316;DHT22;5203;48.976;8.306;2023-02-22T12:40:49;15.50;51.30
10316;DHT22;5203;48.976;8.306;2023-02-22T12:43:32;15.50;51.50
10316;DHT22;5203;48.976;8.306;2023-02-22T12:46:01;16.20;49.40
10316;DHT22;5203;48.976;8.306;2023-02-22T12:53:43;17.10;45.20
10316;DHT22;5203;48.976;8.306;2023-02-22T12:59:04;15.90;49.10
10316;DHT22;5203;48.976;8.306;2023-02-22T13:01:43;15.30;51.20
10316;DHT22;5203;48.976;8.306;2023-02-22T13:04:10;14.80;55.40
10316;DHT22;5203;48.976;8.306;2023-02-22T13:22:35;15.40;51.50
10316;DHT22;5203;48.976;8.306;2023-02-22T13:28:12;15.70;50.60
10316;DHT22;5203;48.976;8.306;2023-02-22T13:47:59;14.80;55.40
10316;DHT22;5203;48.976;8.306;2023-02-22T13:53:02;14.40;57.20
10316;DHT22;5203;48.976;8.306;2023-02-22T13:55:32;14.50;57.10
10316;DHT22;5203;48.976;8.306;2023-02-22T13:58:10;14.40;57.60
10316;DHT22;5203;48.976;8.306;2023-02-22T14:00:46;14.50;57.60
10316;DHT22;5203;48.976;8.306;2023-02-22T14:10:54;14.30;59.40
10316;DHT22;5203;48.976;8.306;2023-02-22T14:13:25;14.30;58.70
10316;DHT22;5203;48.976;8.306;2023-02-22T14:18:41;14.30;59.90
10316;DHT22;5203;48.976;8.306;2023-02-22T14:21:12;14.10;61.40
10316;DHT22;5203;48.976;8.306;2023-02-22T14:23:39;13.80;63.10
10316;DHT22;5203;48.976;8.306;2023-02-22T14:26:32;13.80;62.90
10316;DHT22;5203;48.976;8.306;2023-02-22T14:29:16;13.90;62.90
10316;DHT22;5203;48.976;8.306;2023-02-22T14:31:59;13.90;62.80
10316;DHT22;5203;48.976;8.306;2023-02-22T14:37:34;13.90;63.10
10316;DHT22;5203;48.976;8.306;2023-02-22T14:40:18;14.00;62.00
10316;DHT22;5203;48.976;8.306;2023-02-22T14:43:11;14.20;61.60
10316;DHT22;5203;48.976;8.306;2023-02-22T14:45:44;14.20;61.00
10316;DHT22;5203;48.976;8.306;2023-02-22T14:48:26;14.30;59.70
10316;DHT22;5203;48.976;8.306;2023-02-22T14:51:04;14.50;59.50
10316;DHT22;5203;48.976;8.306;2023-02-22T14:53:53;14.50;58.60
10316;DHT22;5203;48.976;8.306;2023-02-22T14:56:29;14.30;61.80
10316;DHT22;5203;48.976;8.306;2023-02-22T15:01:34;14.20;60.50
10316;DHT22;5203;48.976;8.306;2023-02-22T15:04:23;14.00;59.60
10316;DHT22;5203;48.976;8.306;2023-02-22T15:06:55;14.10;58.00
10316;DHT22;5203;48.976;8.306;2023-02-22T15:14:23;14.10;57.60
10316;DHT22;5203;48.976;8.306;2023-02-22T15:16:52;14.10;58.60
10316;DHT22;5203;48.976;8.306;2023-02-22T15:19:27;14.10;57.70
10316;DHT22;5203;48.976;8.306;2023-02-22T15:21:55;14.40;58.00
10316;DHT22;5203;48.976;8.306;2023-02-22T15:26:52;14.40;58.40
10316;DHT22;5203;48.976;8.306;2023-02-22T15:29:34;14.40;58.60
10316;DHT22;5203;48.976;8.306;2023-02-22T15:32:00;14.30;60.00
10316;DHT22;5203;48.976;8.306;2023-02-22T15:36:56;14.40;58.90
10316;DHT22;5203;48.976;8.306;2023-02-22T15:39:28;14.40;59.30
10316;DHT22;5203;48.976;8.306;2023-02-22T15:42:15;14.50;58.80
10316;DHT22;5203;48.976;8.306;2023-02-22T15:44:50;14.40;60.30
10316;DHT22;5203;48.976;8.306;2023-02-22T15:47:29;14.10;61.70
10316;DHT22;5203;48.976;8.306;2023-02-22T15:50:33;14.00;61.20
10316;DHT22;5203;48.976;8.306;2023-02-22T15:55:39;13.70;63.00
10316;DHT22;5203;48.976;8.306;2023-02-22T15:58:16;13.60;62.90
10316;DHT22;5203;48.976;8.306;2023-02-22T16:01:03;13.70;63.30
10316;DHT22;5203;48.976;8.306;2023-02-22T16:06:30;13.50;64.50
10316;DHT22;5203;48.976;8.306;2023-02-22T16:09:11;13.40;64.90
10316;DHT22;5203;48.976;8.306;2023-02-22T16:11:40;13.30;64.40
10316;DHT22;5203;48.976;8.306;2023-02-22T16:14:30;13.30;64.70
10316;DHT22;5203;48.976;8.306;2023-02-22T16:19:51;13.20;64.80
10316;DHT22;5203;48.976;8.306;2023-02-22T16:24:51;13.20;66.20
10316;DHT22;5203;48.976;8.306;2023-02-22T16:27:20;13.00;66.90
10316;DHT22;5203;48.976;8.306;2023-02-22T16:30:16;13.00;67.10
10316;DHT22;5203;48.976;8.306;2023-02-22T16:32:45;13.00;66.70
10316;DHT22;5203;48.976;8.306;2023-02-22T16:35:11;13.10;66.60
10316;DHT22;5203;48.976;8.306;2023-02-22T16:38:04;13.20;66.20
10316;DHT22;5203;48.976;8.306;2023-02-22T16:40:44;13.20;66.60
10316;DHT22;5203;48.976;8.306;2023-02-22T16:43:13;13.20;67.30
10316;DHT22;5203;48.976;8.306;2023-02-22T16:45:41;13.10;68.00
10316;DHT22;5203;48.976;8.306;2023-02-22T16:48:27;13.00;68.90
10316;DHT22;5203;48.976;8.306;2023-02-22T16:51:10;12.80;70.10
10316;DHT22;5203;48.976;8.306;2023-02-22T16:53:41;12.70;71.40
10316;DHT22;5203;48.976;8.306;2023-02-22T16:56:08;12.60;72.20
10316;DHT22;5203;48.976;8.306;2023-02-22T16:58:38;12.60;72.60
10316;DHT22;5203;48.976;8.306;2023-02-22T17:01:06;12.50;74.30
10316;DHT22;5203;48.976;8.306;2023-02-22T17:03:31;12.50;75.10
10316;DHT22;5203;48.976;8.306;2023-02-22T17:05:58;12.40;76.70
10316;DHT22;5203;48.976;8.306;2023-02-22T17:08:23;12.40;77.20
10316;DHT22;5203;48.976;8.306;2023-02-22T17:10:50;12.40;77.80
10316;DHT22;5203;48.976;8.306;2023-02-22T17:13:19;12.40;78.10
10316;DHT22;5203;48.976;8.306;2023-02-22T17:15:47;12.20;79.40
10316;DHT22;5203;48.976;8.306;2023-02-22T17:18:14;12.10;80.70
10316;DHT22;5203;48.976;8.306;2023-02-22T17:20:41;12.10;80.20
10316;DHT22;5203;48.976;8.306;2023-02-22T17:23:08;12.10;80.70
10316;DHT22;5203;48.976;8.306;2023-02-22T17:25:48;12.00;81.00
10316;DHT22;5203;48.976;8.306;2023-02-22T17:28:14;11.90;81.60
10316;DHT22;5203;48.976;8.306;2023-02-22T17:30:41;12.00;81.50
10316;DHT22;5203;48.976;8.306;2023-02-22T17:33:12;12.00;81.20
10316;DHT22;5203;48.976;8.306;2023-02-22T17:35:40;12.00;81.40
10316;DHT22;5203;48.976;8.306;2023-02-22T17:38:06;11.90;81.50
10316;DHT22;5203;48.976;8.306;2023-02-22T17:40:33;12.00;81.40
10316;DHT22;5203;48.976;8.306;2023-02-22T17:42:59;12.00;80.90
10316;DHT22;5203;48.976;8.306;2023-02-22T17:45:26;12.10;79.90
10316;DHT22;5203;48.976;8.306;2023-02-22T17:47:52;12.20;79.50
10316;DHT22;5203;48.976;8.306;2023-02-22T17:50:19;12.30;79.10
10316;DHT22;5203;48.976;8.306;2023-02-22T17:52:45;12.20;78.90
10316;DHT22;5203;48.976;8.306;2023-02-22T17:55:12;12.20;78.90
10316;DHT22;5203;48.976;8.306;2023-02-22T17:57:39;12.20;79.10
10316;DHT22;5203;48.976;8.306;2023-02-22T18:00:10;12.20;79.20
10316;DHT22;5203;48.976;8.306;2023-02-22T18:02:41;12.20;79.40
10316;DHT22;5203;48.976;8.306;2023-02-22T18:05:08;12.20;79.00
10316;DHT22;5203;48.976;8.306;2023-02-22T18:07:35;12.30;78.90
10316;DHT22;5203;48.976;8.306;2023-02-22T18:10:01;12.30;78.30
10316;DHT22;5203;48.976;8.306;2023-02-22T18:12:30;12.30;78.60
10316;DHT22;5203;48.976;8.306;2023-02-22T18:14:56;12.10;79.80
10316;DHT22;5203;48.976;8.306;2023-02-22T18:17:22;12.00;80.30
10316;DHT22;5203;48.976;8.306;2023-02-22T18:19:48;12.10;80.00
10316;DHT22;5203;48.976;8.306;2023-02-22T18:22:13;12.10;80.00
10316;DHT22;5203;48.976;8.306;2023-02-22T18:24:39;12.20;79.30
10316;DHT22;5203;48.976;8.306;2023-02-22T18:27:05;12.10;79.80
10316;DHT22;5203;48.976;8.306;2023-02-22T18:29:31;12.00;80.60
10316;DHT22;5203;48.976;8.306;2023-02-22T18:31:57;11.90;81.30
10316;DHT22;5203;48.976;8.306;2023-02-22T18:34:22;11.80;82.20
10316;DHT22;5203;48.976;8.306;2023-02-22T18:36:53;11.80;81.70
10316;DHT22;5203;48.976;8.306;2023-02-22T18:39:19;11.70;82.50
10316;DHT22;5203;48.976;8.306;2023-02-22T18:41:45;11.70;83.20
10316;DHT22;5203;48.976;8.306;2023-02-22T18:44:14;11.60;83.50
10316;DHT22;5203;48.976;8.306;2023-02-22T18:46:40;11.50;84.20
10316;DHT22;5203;48.976;8.306;2023-02-22T18:49:06;11.50;85.10
10316;DHT22;5203;48.976;8.306;2023-02-22T18:51:31;11.50;84.60
10316;DHT22;5203;48.976;8.306;2023-02-22T18:53:57;11.50;84.90
10316;DHT22;5203;48.976;8.306;2023-02-22T18:56:27;11.50;85.30
10316;DHT22;5203;48.976;8.306;2023-02-22T18:59:01;11.60;85.10
10316;DHT22;5203;48.976;8.306;2023-02-22T19:01:27;11.50;85.30
10316;DHT22;5203;48.976;8.306;2023-02-22T19:03:53;11.60;85.50
10316;DHT22;5203;48.976;8.306;2023-02-22T19:06:19;11.60;84.60